createdAt,value
2022-09-03T00:00:01.615Z,0.123
2022-09-03T00:05:01.532Z,0.133
2022-09-03T00:10:01.503Z,0.179
2022-09-03T00:15:01.567Z,0.185
2022-09-03T00:20:01.730Z,0.186
2022-09-03T00:25:01.544Z,0.139
2022-09-03T00:30:01.511Z,0.134
2022-09-03T00:35:01.610Z,0.131
2022-09-03T00:40:01.705Z,0.11900000000000001
2022-09-03T00:45:01.629Z,0.116
2022-09-03T00:50:01.562Z,0.121
2022-09-03T00:55:01.680Z,0.17
2022-09-03T01:00:01.623Z,0.169
2022-09-03T01:05:01.559Z,0.168
2022-09-03T01:10:01.615Z,0.148
2022-09-03T01:15:01.769Z,0.12
2022-09-03T01:20:01.665Z,0.11900000000000001
2022-09-03T01:25:01.540Z,0.12
2022-09-03T01:30:01.809Z,0.12
2022-09-03T01:35:01.769Z,0.129
2022-09-03T01:40:01.786Z,0.161
2022-09-03T01:45:01.685Z,0.181
2022-09-03T01:50:01.793Z,0.181
2022-09-03T01:55:01.588Z,0.163
2022-09-03T02:00:01.595Z,0.132
2022-09-03T02:05:01.601Z,0.132
2022-09-03T02:10:01.985Z,0.125
2022-09-03T02:15:01.646Z,0.113
2022-09-03T02:20:01.689Z,0.113
2022-09-03T02:25:01.622Z,0.14300000000000002
2022-09-03T02:30:01.810Z,0.169
2022-09-03T02:35:01.603Z,0.168
2022-09-03T02:40:01.733Z,0.162
2022-09-03T02:45:01.635Z,0.122
2022-09-03T02:50:01.845Z,0.12
2022-09-03T02:55:01.643Z,0.121
2022-09-03T03:00:01.652Z,0.121
2022-09-03T03:05:01.780Z,0.128
2022-09-03T03:10:01.693Z,0.154
2022-09-03T03:15:01.722Z,0.183
2022-09-03T03:20:01.673Z,0.181
2022-09-03T03:25:01.843Z,0.169
2022-09-03T03:30:01.647Z,0.132
2022-09-03T03:35:01.684Z,0.131
2022-09-03T03:40:01.715Z,0.13
2022-09-03T03:45:01.838Z,0.11900000000000001
2022-09-03T03:50:01.718Z,0.117
2022-09-03T03:55:01.750Z,0.14100000000000001
2022-09-03T04:00:01.685Z,0.165
2022-09-03T04:05:01.886Z,0.171
2022-09-03T04:10:01.683Z,0.164
2022-09-03T04:15:01.710Z,0.124
2022-09-03T04:20:01.699Z,0.123
2022-09-03T04:25:01.957Z,0.126
2022-09-03T04:30:01.901Z,26.739
2022-09-03T04:35:01.860Z,35.692
2022-09-03T04:40:01.919Z,37.737
2022-09-03T04:45:02.246Z,49.44
2022-09-03T04:50:01.783Z,54.904
2022-09-03T04:55:01.716Z,90.858
2022-09-03T05:00:01.734Z,141.096
2022-09-03T05:05:01.955Z,158.733
2022-09-03T05:10:01.763Z,209.871
2022-09-03T05:15:01.739Z,247.12900000000002
2022-09-03T05:20:01.832Z,298.798
2022-09-03T05:25:01.753Z,283.598
2022-09-03T05:30:01.777Z,329.976
2022-09-03T05:35:01.829Z,315.817
2022-09-03T05:40:01.943Z,328.088
2022-09-03T05:45:01.977Z,380.42900000000003
2022-09-03T05:50:01.797Z,585.643
2022-09-03T05:55:01.810Z,746.7230000000001
2022-09-03T06:00:01.910Z,629.043
2022-09-03T06:05:01.806Z,655.9250000000001
2022-09-03T06:10:01.794Z,670.499
2022-09-03T06:15:01.791Z,648.106
2022-09-03T06:20:02.034Z,580.654
2022-09-03T06:25:01.834Z,982.0690000000001
2022-09-03T06:30:01.815Z,1027.827
2022-09-03T06:35:01.938Z,1163.809
2022-09-03T06:40:02.110Z,1801.718
2022-09-03T06:45:01.854Z,1884.271
2022-09-03T06:50:01.999Z,1332.3
2022-09-03T06:55:01.932Z,1684.88
2022-09-03T07:00:01.894Z,1193.084
2022-09-03T07:05:01.964Z,1305.578
2022-09-03T07:10:01.885Z,924.447
2022-09-03T07:15:01.961Z,878.683
2022-09-03T07:20:01.871Z,1241.8890000000001
2022-09-03T07:25:01.859Z,1662.782
2022-09-03T07:30:01.903Z,1839.797
2022-09-03T07:35:02.068Z,2481.113
2022-09-03T07:40:02.032Z,3872.37
2022-09-03T07:45:01.872Z,3653.397
2022-09-03T07:50:01.973Z,4072.145
2022-09-03T07:55:02.136Z,1696.719
2022-09-03T08:00:01.906Z,3005.435
2022-09-03T08:05:02.205Z,1894.502
2022-09-03T08:10:02.164Z,1911.738
2022-09-03T08:15:01.941Z,2133.259
2022-09-03T08:20:01.902Z,1727.968
2022-09-03T08:25:01.919Z,1283.328
2022-09-03T08:30:02.117Z,1395.477
2022-09-03T08:35:01.964Z,1358.794
2022-09-03T08:40:02.186Z,1640.356
2022-09-03T08:45:02.087Z,1399.53
2022-09-03T08:50:01.942Z,1524.989
2022-09-03T08:55:01.942Z,1658.019
2022-09-03T09:00:02.056Z,1332.98
2022-09-03T09:05:02.149Z,1361.452
2022-09-03T09:10:01.969Z,1268.215
2022-09-03T09:15:02.135Z,885.9780000000001
2022-09-03T09:20:02.243Z,727.15
2022-09-03T09:25:02.052Z,999.647
2022-09-03T09:30:02.047Z,1646.733
2022-09-03T09:35:02.046Z,1976.3210000000001
2022-09-03T09:40:02.271Z,2213.377
2022-09-03T09:45:01.973Z,2672.424
2022-09-03T09:50:02.034Z,3316.318
2022-09-03T09:55:02.112Z,4343.505
2022-09-03T10:00:01.956Z,2216.859
2022-09-03T10:05:02.069Z,1643.954
2022-09-03T10:10:02.027Z,1219.156
2022-09-03T10:15:02.254Z,3288.199
2022-09-03T10:20:02.029Z,7166.401
2022-09-03T10:25:02.051Z,1939.7630000000001
2022-09-03T10:30:02.140Z,1529.075
2022-09-03T10:35:02.053Z,1891.332
2022-09-03T10:40:02.066Z,2921.716
2022-09-03T10:45:02.069Z,2955.737
2022-09-03T10:50:02.377Z,2606.03
2022-09-03T10:55:02.057Z,2137.239
2022-09-03T11:00:02.084Z,1901.7060000000001
2022-09-03T11:05:02.197Z,1364.255
2022-09-03T11:10:02.073Z,916.96
2022-09-03T11:15:02.092Z,387.833
2022-09-03T11:20:02.249Z,307.468
2022-09-03T11:25:02.348Z,562.626
2022-09-03T11:30:02.089Z,959.011
2022-09-03T11:35:02.080Z,1325.106
2022-09-03T11:40:02.309Z,1298.585
2022-09-03T11:45:02.086Z,1008.9300000000001
2022-09-03T11:50:02.163Z,799.823
2022-09-03T11:55:02.277Z,733.479
2022-09-03T12:00:02.216Z,905.174
2022-09-03T12:05:05.193Z,930.501
2022-09-03T12:20:02.285Z,1109.864
2022-09-03T12:25:02.164Z,1316.0520000000001
2022-09-03T12:30:02.421Z,1562.7540000000001
2022-09-03T12:35:02.168Z,1301.763
2022-09-03T12:40:07.240Z,1028.18
2022-09-03T12:45:02.309Z,1109.891
2022-09-03T12:50:02.191Z,1131.119
2022-09-03T12:55:02.173Z,1123.607
2022-09-03T13:00:02.146Z,1261.958
2022-09-03T13:05:02.303Z,1422.039
2022-09-03T13:10:02.144Z,2731.062
2022-09-03T13:15:02.287Z,6634.9400000000005
2022-09-03T13:20:02.252Z,7447.631
2022-09-03T13:25:02.214Z,7066.8460000000005
2022-09-03T13:30:02.196Z,6987.157
2022-09-03T13:35:02.314Z,6775.6810000000005
2022-09-03T13:40:02.395Z,6790.578
2022-09-03T13:45:02.240Z,5753.421
2022-09-03T13:50:02.210Z,4395.3060000000005
2022-09-03T13:55:02.356Z,7826.095
2022-09-03T14:00:02.262Z,4042.367
2022-09-03T14:05:02.302Z,6919.084
2022-09-03T14:10:02.216Z,5803.587
2022-09-03T14:15:02.422Z,3044.031
2022-09-03T14:20:02.245Z,1109.752
2022-09-03T14:25:02.376Z,907.865
2022-09-03T14:30:02.418Z,822.241
2022-09-03T14:35:02.257Z,755.936
2022-09-03T14:40:02.547Z,787.352
2022-09-03T14:45:02.499Z,725.691
2022-09-03T14:50:02.305Z,634.163
2022-09-03T14:55:02.260Z,566.1850000000001
2022-09-03T15:00:02.436Z,683.423
2022-09-03T15:05:02.369Z,2521.75
2022-09-03T15:10:02.568Z,5074.211
2022-09-03T15:15:02.269Z,4862.618
2022-09-03T15:20:02.354Z,4930.997
2022-09-03T15:25:02.234Z,2267.589
2022-09-03T15:30:02.389Z,2359.352
2022-09-03T15:35:02.541Z,2983.122
2022-09-03T15:40:02.403Z,2944.525
2022-09-03T15:45:02.364Z,2826.4230000000002
2022-09-03T15:50:02.530Z,2216.718
2022-09-03T15:55:02.398Z,921.447
2022-09-03T16:00:02.310Z,560.126
2022-09-03T16:05:02.576Z,446.699
2022-09-03T16:10:23.574Z,519.4540000000001
2022-09-03T16:15:02.300Z,531.053
2022-09-03T16:20:02.510Z,591.128
2022-09-03T16:25:02.335Z,555.269
2022-09-03T16:30:02.351Z,470.17
2022-09-03T16:35:02.530Z,530.638
2022-09-03T16:40:02.384Z,1262.497
2022-09-03T16:45:02.338Z,426.069
2022-09-03T16:50:02.473Z,453.103
2022-09-03T16:55:02.386Z,1430.863
2022-09-03T17:00:02.377Z,966.932
2022-09-03T17:05:02.429Z,470.481
2022-09-03T17:10:02.362Z,171.787
2022-09-03T17:15:02.352Z,99.902
2022-09-03T17:20:02.424Z,74.506
2022-09-03T17:25:02.615Z,58.132
2022-09-03T17:30:02.421Z,39.687
2022-09-03T17:35:02.470Z,41.556
2022-09-03T17:40:02.711Z,28.061
2022-09-03T17:45:02.393Z,22.75
2022-09-03T17:50:02.434Z,10.457
2022-09-03T17:55:02.446Z,0.015
2022-09-03T18:00:02.757Z,0.014
2022-09-03T18:05:02.480Z,0.056
2022-09-03T18:10:02.471Z,0.033
2022-09-03T18:15:02.673Z,0.054
2022-09-03T18:20:02.420Z,0.02
2022-09-03T18:25:02.455Z,0.039
2022-09-03T18:30:02.795Z,0.186
2022-09-03T18:35:02.467Z,0.17200000000000001
2022-09-03T18:40:02.457Z,0.152
2022-09-03T18:45:20.114Z,0.039
2022-09-03T18:50:02.549Z,0.046
2022-09-03T18:55:08.157Z,0.053
2022-09-03T19:00:02.502Z,0.025
2022-09-03T19:05:02.640Z,0.04
2022-09-03T19:10:02.514Z,0.021
2022-09-03T19:15:02.481Z,0.036000000000000004
2022-09-03T19:20:02.770Z,0.019
2022-09-03T19:25:02.482Z,0.036000000000000004
2022-09-03T19:30:03.178Z,0.019
2022-09-03T19:35:02.612Z,0
2022-09-03T19:40:02.569Z,0
2022-09-03T19:45:02.543Z,0
2022-09-03T19:50:02.485Z,0
2022-09-03T19:55:02.713Z,0
2022-09-03T20:00:02.592Z,0
2022-09-03T20:05:02.645Z,0
2022-09-03T20:10:02.541Z,0
2022-09-03T20:15:02.499Z,0
2022-09-03T20:20:02.574Z,0.07
2022-09-03T20:25:02.584Z,0.074
2022-09-03T20:30:02.749Z,0.044
2022-09-03T20:35:02.581Z,0
2022-09-03T20:40:02.579Z,0.059000000000000004
2022-09-03T20:45:02.766Z,0.079
2022-09-03T20:50:02.788Z,0.382
2022-09-03T20:55:02.558Z,0.266
2022-09-03T21:00:02.619Z,0.096
2022-09-03T21:05:02.594Z,0.106
2022-09-03T21:10:02.884Z,1.433
2022-09-03T21:15:02.609Z,1.643
2022-09-03T21:20:02.680Z,1.491
2022-09-03T21:25:02.710Z,1.337
2022-09-03T21:30:02.785Z,1.6260000000000001
2022-09-03T21:35:02.572Z,1.456
2022-09-03T21:40:03.357Z,1.3780000000000001
2022-09-03T21:45:02.711Z,1.428
2022-09-03T21:50:02.821Z,1.536
2022-09-03T21:55:02.597Z,1.281
2022-09-03T22:00:02.620Z,1.283
2022-09-03T22:05:02.837Z,1.413
2022-09-03T22:10:02.630Z,1.52
2022-09-03T22:15:02.630Z,1.288
2022-09-03T22:20:02.781Z,1.3
2022-09-03T22:25:02.845Z,1.385
2022-09-03T22:30:02.690Z,1.408
2022-09-03T22:35:02.634Z,1.157
2022-09-03T22:40:02.714Z,0.421
2022-09-03T22:45:02.821Z,0.177
2022-09-03T22:50:02.673Z,0.319
2022-09-03T22:55:02.646Z,0.234
2022-09-03T23:00:02.652Z,0.224
2022-09-03T23:05:02.821Z,0.081
2022-09-03T23:10:02.694Z,0
2022-09-03T23:15:02.757Z,0.135
2022-09-03T23:25:02.930Z,0.153
2022-09-03T23:30:02.720Z,0
2022-09-03T23:35:02.689Z,0.092
2022-09-03T23:40:02.856Z,0.117
2022-09-03T23:45:02.945Z,0.117
2022-09-03T23:50:02.722Z,0.006
2022-09-03T23:55:02.748Z,0.089
